This is the latest recevied weather packets stored in our database for station/object N5GMJ. If no packets are shown the sender has not sent any weather packets the latest 10 day(s).
| Time | Temp. | Humidity | Pressure | Rain* | Wind** | Luminosity | Snow |
|---|---|---|---|---|---|---|---|
| 1777232524 | 27.22° C | 79% | 1008 hPa | 0 mm | - | - | - |
| 1777232222 | 27.22° C | 78% | 1008.2 hPa | 0 mm | - | - | - |
| 1777231917 | 27.22° C | 80% | 1008.2 hPa | 0 mm | - | - | - |
| 1777231615 | 27.22° C | 79% | 1008.2 hPa | 0 mm | - | - | - |
| 1777231311 | 27.78° C | 79% | 1008.4 hPa | 0 mm | - | - | - |
| 1777231006 | 26.67° C | 82% | 1008.4 hPa | 0 mm | - | - | - |
| 1777230703 | 26.67° C | 84% | 1008.2 hPa | 0 mm | - | - | - |
| 1777230398 | 26.67° C | 82% | 1008.4 hPa | 0 mm | - | - | - |
| 1777230095 | 26.11° C | 82% | 1008.4 hPa | 0 mm | - | - | - |
| 1777229792 | 26.67° C | 81% | 1008.4 hPa | 0 mm | - | - | - |
| 1777229489 | 25.56° C | 84% | 1008.7 hPa | 0 mm | - | - | - |
| 1777229185 | 25.56° C | 84% | 1008.7 hPa | 0 mm | - | - | - |
| 1777228882 | 25.56° C | 84% | 1008.7 hPa | 0 mm | - | - | - |
| 1777228578 | 25.56° C | 83% | 1008.9 hPa | 0 mm | - | - | - |
| 1777228274 | 25.56° C | 84% | 1008.8 hPa | 0 mm | - | - | - |
| 1777227969 | 25.56° C | 85% | 1009.1 hPa | 0 mm | - | - | - |
| 1777227664 | 25.56° C | 84% | 1009 hPa | 0 mm | - | - | - |
| 1777227360 | 25° C | 86% | 1009.2 hPa | 0 mm | - | - | - |
| 1777227057 | 25° C | 85% | 1009.1 hPa | 0 mm | - | - | - |
| 1777226757 | 25° C | 86% | 1009.2 hPa | 0 mm | - | - | - |
| 1777226452 | 25° C | 85% | 1009.2 hPa | 0 mm | - | - | - |
| 1777226148 | 25.56° C | 85% | 1009.2 hPa | 0 mm | - | - | - |
| 1777225844 | 25° C | 86% | 1009.2 hPa | 0 mm | - | - | - |
| 1777225540 | 25° C | 86% | 1009.3 hPa | 0 mm | - | - | - |
| 1777225238 | 25° C | 86% | 1009.3 hPa | 0 mm | - | - | - |
* Rain latest hour (hover to see other rain measurements)
** Current wind speed in m/s (hover to see current wind gust speed)